sensor_id;sensor_type;location;lat;lon;timestamp;temperature;humidity
13713;DHT22;6928;50.546;7.120;2023-06-14T00:01:39;17.04;61.75
13713;DHT22;6928;50.546;7.120;2023-06-14T00:04:07;17.09;61.61
13713;DHT22;6928;50.546;7.120;2023-06-14T00:06:34;16.97;62.07
13713;DHT22;6928;50.546;7.120;2023-06-14T00:09:00;16.91;62.31
13713;DHT22;6928;50.546;7.120;2023-06-14T00:11:27;16.94;62.07
13713;DHT22;6928;50.546;7.120;2023-06-14T00:13:55;16.97;62.10
13713;DHT22;6928;50.546;7.120;2023-06-14T00:16:22;16.84;62.60
13713;DHT22;6928;50.546;7.120;2023-06-14T00:18:49;16.83;62.63
13713;DHT22;6928;50.546;7.120;2023-06-14T00:21:18;16.81;62.81
13713;DHT22;6928;50.546;7.120;2023-06-14T00:23:45;16.92;62.39
13713;DHT22;6928;50.546;7.120;2023-06-14T00:26:12;16.90;62.39
13713;DHT22;6928;50.546;7.120;2023-06-14T00:28:38;16.97;61.95
13713;DHT22;6928;50.546;7.120;2023-06-14T00:31:06;16.81;62.52
13713;DHT22;6928;50.546;7.120;2023-06-14T00:33:33;16.84;62.52
13713;DHT22;6928;50.546;7.120;2023-06-14T00:35:59;16.83;62.62
13713;DHT22;6928;50.546;7.120;2023-06-14T00:38:27;16.71;63.03
13713;DHT22;6928;50.546;7.120;2023-06-14T00:40:54;16.71;63.15
13713;DHT22;6928;50.546;7.120;2023-06-14T00:43:20;16.49;63.79
13713;DHT22;6928;50.546;7.120;2023-06-14T00:45:47;16.54;63.58
13713;DHT22;6928;50.546;7.120;2023-06-14T00:48:15;16.59;63.37
13713;DHT22;6928;50.546;7.120;2023-06-14T00:50:42;16.63;63.18
13713;DHT22;6928;50.546;7.120;2023-06-14T00:53:11;16.54;63.35
13713;DHT22;6928;50.546;7.120;2023-06-14T00:55:38;16.30;64.36
13713;DHT22;6928;50.546;7.120;2023-06-14T00:58:06;16.49;63.72
13713;DHT22;6928;50.546;7.120;2023-06-14T01:00:32;16.47;63.98
13713;DHT22;6928;50.546;7.120;2023-06-14T01:02:59;16.36;64.77
13713;DHT22;6928;50.546;7.120;2023-06-14T01:05:26;16.36;64.95
13713;DHT22;6928;50.546;7.120;2023-06-14T01:08:05;16.13;65.87
13713;DHT22;6928;50.546;7.120;2023-06-14T01:10:41;16.32;65.01
13713;DHT22;6928;50.546;7.120;2023-06-14T01:13:19;16.32;64.90
13713;DHT22;6928;50.546;7.120;2023-06-14T01:15:47;16.33;64.71
13713;DHT22;6928;50.546;7.120;2023-06-14T01:18:14;16.18;64.89
13713;DHT22;6928;50.546;7.120;2023-06-14T01:20:44;16.16;64.72
13713;DHT22;6928;50.546;7.120;2023-06-14T01:23:13;16.06;64.99
13713;DHT22;6928;50.546;7.120;2023-06-14T01:25:40;15.99;65.09
13713;DHT22;6928;50.546;7.120;2023-06-14T01:28:10;15.98;65.02
13713;DHT22;6928;50.546;7.120;2023-06-14T01:30:39;16.13;64.56
13713;DHT22;6928;50.546;7.120;2023-06-14T01:33:10;15.92;66.37
13713;DHT22;6928;50.546;7.120;2023-06-14T01:35:38;16.08;65.42
13713;DHT22;6928;50.546;7.120;2023-06-14T01:38:06;16.08;65.35
13713;DHT22;6928;50.546;7.120;2023-06-14T01:40:35;16.01;66.02
13713;DHT22;6928;50.546;7.120;2023-06-14T01:43:03;15.89;66.08
13713;DHT22;6928;50.546;7.120;2023-06-14T01:45:30;15.77;66.40
13713;DHT22;6928;50.546;7.120;2023-06-14T01:47:58;15.75;66.61
13713;DHT22;6928;50.546;7.120;2023-06-14T01:50:28;15.75;66.55
13713;DHT22;6928;50.546;7.120;2023-06-14T01:52:54;15.71;66.75
13713;DHT22;6928;50.546;7.120;2023-06-14T01:55:21;15.72;66.49
13713;DHT22;6928;50.546;7.120;2023-06-14T01:57:51;15.86;65.96
13713;DHT22;6928;50.546;7.120;2023-06-14T02:00:18;15.67;66.83
13713;DHT22;6928;50.546;7.120;2023-06-14T02:02:45;15.57;66.90
13713;DHT22;6928;50.546;7.120;2023-06-14T02:05:12;15.54;67.40
13713;DHT22;6928;50.546;7.120;2023-06-14T02:07:38;15.64;66.84
13713;DHT22;6928;50.546;7.120;2023-06-14T02:10:05;15.50;67.39
13713;DHT22;6928;50.546;7.120;2023-06-14T02:12:32;15.55;67.12
13713;DHT22;6928;50.546;7.120;2023-06-14T02:15:00;15.67;65.85
13713;DHT22;6928;50.546;7.120;2023-06-14T02:17:26;15.70;65.94
13713;DHT22;6928;50.546;7.120;2023-06-14T02:19:53;15.44;66.75
13713;DHT22;6928;50.546;7.120;2023-06-14T02:22:21;15.32;67.45
13713;DHT22;6928;50.546;7.120;2023-06-14T02:24:47;15.09;68.66
13713;DHT22;6928;50.546;7.120;2023-06-14T02:27:14;15.16;68.45
13713;DHT22;6928;50.546;7.120;2023-06-14T02:29:41;15.17;68.36
13713;DHT22;6928;50.546;7.120;2023-06-14T02:32:09;15.17;68.48
13713;DHT22;6928;50.546;7.120;2023-06-14T02:34:36;15.19;68.04
13713;DHT22;6928;50.546;7.120;2023-06-14T02:37:06;15.16;68.07
13713;DHT22;6928;50.546;7.120;2023-06-14T02:39:32;15.22;67.99
13713;DHT22;6928;50.546;7.120;2023-06-14T02:41:59;15.14;68.36
13713;DHT22;6928;50.546;7.120;2023-06-14T02:44:26;15.03;68.69
13713;DHT22;6928;50.546;7.120;2023-06-14T02:46:53;14.98;68.90
13713;DHT22;6928;50.546;7.120;2023-06-14T02:49:22;14.86;69.29
13713;DHT22;6928;50.546;7.120;2023-06-14T02:51:49;14.79;69.53
13713;DHT22;6928;50.546;7.120;2023-06-14T02:54:15;14.81;69.23
13713;DHT22;6928;50.546;7.120;2023-06-14T02:56:42;14.79;69.38
13713;DHT22;6928;50.546;7.120;2023-06-14T02:59:09;14.64;70.04
13713;DHT22;6928;50.546;7.120;2023-06-14T03:01:35;14.67;70.04
13713;DHT22;6928;50.546;7.120;2023-06-14T03:04:06;14.65;69.99
13713;DHT22;6928;50.546;7.120;2023-06-14T03:06:34;14.69;69.81
13713;DHT22;6928;50.546;7.120;2023-06-14T03:09:01;14.65;69.66
13713;DHT22;6928;50.546;7.120;2023-06-14T03:11:29;14.61;69.78
13713;DHT22;6928;50.546;7.120;2023-06-14T03:13:56;14.58;70.03
13713;DHT22;6928;50.546;7.120;2023-06-14T03:16:23;14.40;70.42
13713;DHT22;6928;50.546;7.120;2023-06-14T03:18:51;14.44;70.16
13713;DHT22;6928;50.546;7.120;2023-06-14T03:21:18;14.62;69.76
13713;DHT22;6928;50.546;7.120;2023-06-14T03:23:47;14.68;69.34
13713;DHT22;6928;50.546;7.120;2023-06-14T03:26:14;14.65;69.21
13713;DHT22;6928;50.546;7.120;2023-06-14T03:28:43;14.48;70.04
13713;DHT22;6928;50.546;7.120;2023-06-14T03:31:10;14.25;70.73
13713;DHT22;6928;50.546;7.120;2023-06-14T03:33:37;14.30;70.66
13713;DHT22;6928;50.546;7.120;2023-06-14T03:36:04;14.40;70.37
13713;DHT22;6928;50.546;7.120;2023-06-14T03:38:30;14.41;70.17
13713;DHT22;6928;50.546;7.120;2023-06-14T03:40:58;14.55;69.81
13713;DHT22;6928;50.546;7.120;2023-06-14T03:43:25;14.55;69.56
13713;DHT22;6928;50.546;7.120;2023-06-14T03:45:52;14.41;70.25
13713;DHT22;6928;50.546;7.120;2023-06-14T03:48:18;14.50;69.84
13713;DHT22;6928;50.546;7.120;2023-06-14T03:50:45;14.40;70.32
13713;DHT22;6928;50.546;7.120;2023-06-14T03:53:12;14.21;70.89
13713;DHT22;6928;50.546;7.120;2023-06-14T03:55:39;14.28;70.56
13713;DHT22;6928;50.546;7.120;2023-06-14T03:58:08;14.28;70.35
13713;DHT22;6928;50.546;7.120;2023-06-14T04:00:34;14.35;69.66
13713;DHT22;6928;50.546;7.120;2023-06-14T04:03:01;14.62;68.98
13713;DHT22;6928;50.546;7.120;2023-06-14T04:05:28;14.61;69.04
13713;DHT22;6928;50.546;7.120;2023-06-14T04:07:55;14.33;70.71
13713;DHT22;6928;50.546;7.120;2023-06-14T04:10:22;14.50;69.68
13713;DHT22;6928;50.546;7.120;2023-06-14T04:12:49;14.47;70.45
13713;DHT22;6928;50.546;7.120;2023-06-14T04:15:18;14.50;70.41
13713;DHT22;6928;50.546;7.120;2023-06-14T04:17:45;14.54;70.45
13713;DHT22;6928;50.546;7.120;2023-06-14T04:20:11;14.50;69.65
13713;DHT22;6928;50.546;7.120;2023-06-14T04:22:38;14.42;70.12
13713;DHT22;6928;50.546;7.120;2023-06-14T04:25:06;14.62;69.17
13713;DHT22;6928;50.546;7.120;2023-06-14T04:27:33;14.45;69.05
13713;DHT22;6928;50.546;7.120;2023-06-14T04:30:01;14.54;69.03
13713;DHT22;6928;50.546;7.120;2023-06-14T04:32:29;14.55;69.02
13713;DHT22;6928;50.546;7.120;2023-06-14T04:34:59;14.76;68.28
13713;DHT22;6928;50.546;7.120;2023-06-14T04:37:27;14.69;68.53
13713;DHT22;6928;50.546;7.120;2023-06-14T04:39:54;14.67;68.68
13713;DHT22;6928;50.546;7.120;2023-06-14T04:42:21;14.86;68.08
13713;DHT22;6928;50.546;7.120;2023-06-14T04:44:50;14.71;68.61
13713;DHT22;6928;50.546;7.120;2023-06-14T04:47:17;14.78;68.44
13713;DHT22;6928;50.546;7.120;2023-06-14T04:49:45;14.85;67.95
13713;DHT22;6928;50.546;7.120;2023-06-14T04:52:12;14.88;68.00
13713;DHT22;6928;50.546;7.120;2023-06-14T04:54:39;14.53;69.37
13713;DHT22;6928;50.546;7.120;2023-06-14T04:57:07;14.86;68.31
13713;DHT22;6928;50.546;7.120;2023-06-14T04:59:34;15.00;68.24
13713;DHT22;6928;50.546;7.120;2023-06-14T05:02:02;14.98;68.23
13713;DHT22;6928;50.546;7.120;2023-06-14T05:04:28;14.82;68.63
13713;DHT22;6928;50.546;7.120;2023-06-14T05:06:56;15.09;67.86
13713;DHT22;6928;50.546;7.120;2023-06-14T05:09:23;15.07;67.87
13713;DHT22;6928;50.546;7.120;2023-06-14T05:11:50;14.82;68.97
13713;DHT22;6928;50.546;7.120;2023-06-14T05:14:17;15.09;67.70
13713;DHT22;6928;50.546;7.120;2023-06-14T05:16:44;15.09;68.22
13713;DHT22;6928;50.546;7.120;2023-06-14T05:19:11;14.91;68.75
13713;DHT22;6928;50.546;7.120;2023-06-14T05:21:38;14.96;68.52
13713;DHT22;6928;50.546;7.120;2023-06-14T05:24:07;14.93;68.38
13713;DHT22;6928;50.546;7.120;2023-06-14T05:26:34;15.19;68.00
13713;DHT22;6928;50.546;7.120;2023-06-14T05:29:01;15.24;67.66
13713;DHT22;6928;50.546;7.120;2023-06-14T05:31:29;15.41;66.82
13713;DHT22;6928;50.546;7.120;2023-06-14T05:33:56;15.36;67.49
13713;DHT22;6928;50.546;7.120;2023-06-14T05:36:23;15.60;66.25
13713;DHT22;6928;50.546;7.120;2023-06-14T05:38:51;15.54;67.07
13713;DHT22;6928;50.546;7.120;2023-06-14T05:41:24;15.58;67.16
13713;DHT22;6928;50.546;7.120;2023-06-14T05:43:51;15.72;66.84
13713;DHT22;6928;50.546;7.120;2023-06-14T05:46:17;15.84;65.71
13713;DHT22;6928;50.546;7.120;2023-06-14T05:48:47;15.89;65.76
13713;DHT22;6928;50.546;7.120;2023-06-14T05:51:14;15.99;65.94
13713;DHT22;6928;50.546;7.120;2023-06-14T05:53:44;16.12;65.63
13713;DHT22;6928;50.546;7.120;2023-06-14T05:56:10;16.08;65.72
13713;DHT22;6928;50.546;7.120;2023-06-14T05:58:38;16.20;65.42
13713;DHT22;6928;50.546;7.120;2023-06-14T06:01:05;16.32;65.30
13713;DHT22;6928;50.546;7.120;2023-06-14T06:03:31;16.50;64.64
13713;DHT22;6928;50.546;7.120;2023-06-14T06:05:58;16.53;64.32
13713;DHT22;6928;50.546;7.120;2023-06-14T06:08:25;16.40;65.17
13713;DHT22;6928;50.546;7.120;2023-06-14T06:10:52;16.56;64.08
13713;DHT22;6928;50.546;7.120;2023-06-14T06:13:19;16.81;63.09
13713;DHT22;6928;50.546;7.120;2023-06-14T06:15:47;16.80;60.65
13713;DHT22;6928;50.546;7.120;2023-06-14T06:18:13;16.87;61.20
13713;DHT22;6928;50.546;7.120;2023-06-14T06:20:40;17.01;61.80
13713;DHT22;6928;50.546;7.120;2023-06-14T06:23:07;17.35;61.20
13713;DHT22;6928;50.546;7.120;2023-06-14T06:25:35;17.32;61.79
13713;DHT22;6928;50.546;7.120;2023-06-14T06:28:02;17.42;60.98
13713;DHT22;6928;50.546;7.120;2023-06-14T06:30:29;17.80;60.15
13713;DHT22;6928;50.546;7.120;2023-06-14T06:32:57;17.81;60.96
13713;DHT22;6928;50.546;7.120;2023-06-14T06:35:24;17.80;60.76
13713;DHT22;6928;50.546;7.120;2023-06-14T06:37:51;18.11;58.87
13713;DHT22;6928;50.546;7.120;2023-06-14T06:40:17;18.38;59.20
13713;DHT22;6928;50.546;7.120;2023-06-14T06:42:45;18.22;59.33
13713;DHT22;6928;50.546;7.120;2023-06-14T06:45:11;18.28;60.16
13713;DHT22;6928;50.546;7.120;2023-06-14T06:47:38;18.84;57.62
13713;DHT22;6928;50.546;7.120;2023-06-14T06:50:07;18.98;54.95
13713;DHT22;6928;50.546;7.120;2023-06-14T06:52:34;18.89;53.79
13713;DHT22;6928;50.546;7.120;2023-06-14T06:55:01;18.94;54.14
13713;DHT22;6928;50.546;7.120;2023-06-14T06:57:28;19.04;53.59
13713;DHT22;6928;50.546;7.120;2023-06-14T06:59:55;19.17;52.77
13713;DHT22;6928;50.546;7.120;2023-06-14T07:02:21;19.26;52.73
13713;DHT22;6928;50.546;7.120;2023-06-14T07:04:48;19.39;52.23
13713;DHT22;6928;50.546;7.120;2023-06-14T07:07:16;19.54;51.75
13713;DHT22;6928;50.546;7.120;2023-06-14T07:09:43;19.63;51.56
13713;DHT22;6928;50.546;7.120;2023-06-14T07:12:11;19.72;51.22
13713;DHT22;6928;50.546;7.120;2023-06-14T07:14:38;19.92;50.12
13713;DHT22;6928;50.546;7.120;2023-06-14T07:17:04;20.12;49.97
13713;DHT22;6928;50.546;7.120;2023-06-14T07:19:31;20.21;50.71
13713;DHT22;6928;50.546;7.120;2023-06-14T07:21:58;20.26;49.79
13713;DHT22;6928;50.546;7.120;2023-06-14T07:24:26;20.23;49.08
13713;DHT22;6928;50.546;7.120;2023-06-14T07:26:53;20.62;49.05
13713;DHT22;6928;50.546;7.120;2023-06-14T07:29:20;20.71;49.06
13713;DHT22;6928;50.546;7.120;2023-06-14T07:31:47;20.40;49.66
13713;DHT22;6928;50.546;7.120;2023-06-14T07:34:13;20.64;48.92
13713;DHT22;6928;50.546;7.120;2023-06-14T07:36:40;20.81;49.41
13713;DHT22;6928;50.546;7.120;2023-06-14T07:39:10;20.68;49.61
13713;DHT22;6928;50.546;7.120;2023-06-14T07:41:38;20.57;50.06
13713;DHT22;6928;50.546;7.120;2023-06-14T07:44:05;21.06;48.43
13713;DHT22;6928;50.546;7.120;2023-06-14T07:46:32;20.98;49.00
13713;DHT22;6928;50.546;7.120;2023-06-14T07:48:59;21.12;48.53
13713;DHT22;6928;50.546;7.120;2023-06-14T07:51:26;20.81;49.11
13713;DHT22;6928;50.546;7.120;2023-06-14T07:53:52;21.13;48.15
13713;DHT22;6928;50.546;7.120;2023-06-14T07:56:19;20.69;49.71
13713;DHT22;6928;50.546;7.120;2023-06-14T07:58:48;20.95;48.67
13713;DHT22;6928;50.546;7.120;2023-06-14T08:01:14;21.15;48.26
13713;DHT22;6928;50.546;7.120;2023-06-14T08:03:42;21.22;47.72
13713;DHT22;6928;50.546;7.120;2023-06-14T08:06:09;21.53;47.45
13713;DHT22;6928;50.546;7.120;2023-06-14T08:08:36;21.77;46.45
13713;DHT22;6928;50.546;7.120;2023-06-14T08:11:02;21.46;47.13
13713;DHT22;6928;50.546;7.120;2023-06-14T08:13:29;21.63;46.80
13713;DHT22;6928;50.546;7.120;2023-06-14T08:15:57;21.91;46.64
13713;DHT22;6928;50.546;7.120;2023-06-14T08:18:23;21.73;47.48
13713;DHT22;6928;50.546;7.120;2023-06-14T08:20:50;21.67;46.40
13713;DHT22;6928;50.546;7.120;2023-06-14T08:23:17;21.77;45.75
13713;DHT22;6928;50.546;7.120;2023-06-14T08:25:46;21.30;47.21
13713;DHT22;6928;50.546;7.120;2023-06-14T08:28:12;21.70;48.19
13713;DHT22;6928;50.546;7.120;2023-06-14T08:30:39;21.47;47.35
13713;DHT22;6928;50.546;7.120;2023-06-14T08:33:07;22.05;47.23
13713;DHT22;6928;50.546;7.120;2023-06-14T08:35:33;21.57;48.35
13713;DHT22;6928;50.546;7.120;2023-06-14T08:38:02;21.70;46.42
13713;DHT22;6928;50.546;7.120;2023-06-14T08:40:30;22.09;46.79
13713;DHT22;6928;50.546;7.120;2023-06-14T08:42:57;22.32;45.07
13713;DHT22;6928;50.546;7.120;2023-06-14T08:45:24;22.25;46.10
13713;DHT22;6928;50.546;7.120;2023-06-14T08:47:51;22.02;45.48
13713;DHT22;6928;50.546;7.120;2023-06-14T08:50:25;22.02;45.70
13713;DHT22;6928;50.546;7.120;2023-06-14T08:52:58;22.56;45.70
13713;DHT22;6928;50.546;7.120;2023-06-14T08:55:27;22.55;42.54
13713;DHT22;6928;50.546;7.120;2023-06-14T08:57:56;22.13;44.40
13713;DHT22;6928;50.546;7.120;2023-06-14T09:00:24;22.63;41.94
13713;DHT22;6928;50.546;7.120;2023-06-14T09:02:51;22.36;42.76
13713;DHT22;6928;50.546;7.120;2023-06-14T09:05:25;22.55;43.76
13713;DHT22;6928;50.546;7.120;2023-06-14T09:07:52;22.76;42.34
13713;DHT22;6928;50.546;7.120;2023-06-14T09:10:20;22.79;41.33
13713;DHT22;6928;50.546;7.120;2023-06-14T09:12:47;22.71;40.69
13713;DHT22;6928;50.546;7.120;2023-06-14T09:15:14;22.56;40.01
13713;DHT22;6928;50.546;7.120;2023-06-14T09:17:41;22.87;39.78
13713;DHT22;6928;50.546;7.120;2023-06-14T09:20:09;23.48;37.27
13713;DHT22;6928;50.546;7.120;2023-06-14T09:22:37;23.35;36.76
13713;DHT22;6928;50.546;7.120;2023-06-14T09:25:05;23.28;37.04
13713;DHT22;6928;50.546;7.120;2023-06-14T09:27:32;23.39;38.07
13713;DHT22;6928;50.546;7.120;2023-06-14T09:29:59;23.32;36.65
13713;DHT22;6928;50.546;7.120;2023-06-14T09:32:25;23.38;37.99
13713;DHT22;6928;50.546;7.120;2023-06-14T09:34:52;23.31;37.80
13713;DHT22;6928;50.546;7.120;2023-06-14T09:37:29;23.62;38.08
13713;DHT22;6928;50.546;7.120;2023-06-14T09:39:57;23.52;38.64
13713;DHT22;6928;50.546;7.120;2023-06-14T09:42:25;23.73;38.51
13713;DHT22;6928;50.546;7.120;2023-06-14T09:44:54;23.48;38.46
13713;DHT22;6928;50.546;7.120;2023-06-14T09:47:21;23.79;38.83
13713;DHT22;6928;50.546;7.120;2023-06-14T09:49:51;23.89;38.57
13713;DHT22;6928;50.546;7.120;2023-06-14T09:52:20;23.79;37.51
13713;DHT22;6928;50.546;7.120;2023-06-14T09:54:48;24.00;37.72
13713;DHT22;6928;50.546;7.120;2023-06-14T09:57:20;23.87;37.03
13713;DHT22;6928;50.546;7.120;2023-06-14T09:59:48;23.94;36.82
13713;DHT22;6928;50.546;7.120;2023-06-14T10:02:21;23.83;35.90
13713;DHT22;6928;50.546;7.120;2023-06-14T10:04:56;24.17;35.88
13713;DHT22;6928;50.546;7.120;2023-06-14T10:07:26;24.14;36.06
13713;DHT22;6928;50.546;7.120;2023-06-14T10:09:57;24.11;35.82
13713;DHT22;6928;50.546;7.120;2023-06-14T10:12:26;24.09;35.58
13713;DHT22;6928;50.546;7.120;2023-06-14T10:14:53;24.33;35.66
13713;DHT22;6928;50.546;7.120;2023-06-14T10:17:30;24.17;36.01
13713;DHT22;6928;50.546;7.120;2023-06-14T10:20:10;24.28;36.13
13713;DHT22;6928;50.546;7.120;2023-06-14T10:22:44;24.34;36.26
13713;DHT22;6928;50.546;7.120;2023-06-14T10:25:26;24.36;35.70
13713;DHT22;6928;50.546;7.120;2023-06-14T10:28:02;24.36;35.70
13713;DHT22;6928;50.546;7.120;2023-06-14T10:30:29;23.79;36.23
13713;DHT22;6928;50.546;7.120;2023-06-14T10:33:13;24.04;37.01
13713;DHT22;6928;50.546;7.120;2023-06-14T10:35:41;24.30;36.46
13713;DHT22;6928;50.546;7.120;2023-06-14T10:38:09;24.38;36.70
13713;DHT22;6928;50.546;7.120;2023-06-14T10:40:36;24.45;36.62
13713;DHT22;6928;50.546;7.120;2023-06-14T10:43:23;24.67;36.68
13713;DHT22;6928;50.546;7.120;2023-06-14T10:46:13;24.78;35.66
13713;DHT22;6928;50.546;7.120;2023-06-14T10:48:40;25.54;35.02
13713;DHT22;6928;50.546;7.120;2023-06-14T10:51:15;24.62;36.13
13713;DHT22;6928;50.546;7.120;2023-06-14T10:53:45;24.78;36.55
13713;DHT22;6928;50.546;7.120;2023-06-14T10:56:23;25.00;35.68
13713;DHT22;6928;50.546;7.120;2023-06-14T10:58:52;24.90;35.56
13713;DHT22;6928;50.546;7.120;2023-06-14T11:01:31;25.64;34.49
13713;DHT22;6928;50.546;7.120;2023-06-14T11:04:09;24.86;35.06
13713;DHT22;6928;50.546;7.120;2023-06-14T11:06:45;24.88;35.69
13713;DHT22;6928;50.546;7.120;2023-06-14T11:09:24;25.44;35.50
13713;DHT22;6928;50.546;7.120;2023-06-14T11:11:56;25.24;36.91
13713;DHT22;6928;50.546;7.120;2023-06-14T11:14:24;25.16;37.00
13713;DHT22;6928;50.546;7.120;2023-06-14T11:16:51;25.00;36.32
13713;DHT22;6928;50.546;7.120;2023-06-14T11:19:17;24.86;36.82
13713;DHT22;6928;50.546;7.120;2023-06-14T11:21:47;25.12;36.42
13713;DHT22;6928;50.546;7.120;2023-06-14T11:24:13;25.51;35.16
13713;DHT22;6928;50.546;7.120;2023-06-14T11:26:40;26.01;34.59
13713;DHT22;6928;50.546;7.120;2023-06-14T11:29:07;25.40;36.68
13713;DHT22;6928;50.546;7.120;2023-06-14T11:31:35;25.19;35.51
13713;DHT22;6928;50.546;7.120;2023-06-14T11:34:02;25.27;36.23
13713;DHT22;6928;50.546;7.120;2023-06-14T11:36:29;25.98;34.37
13713;DHT22;6928;50.546;7.120;2023-06-14T11:39:00;25.98;35.40
13713;DHT22;6928;50.546;7.120;2023-06-14T11:41:32;25.60;34.76
13713;DHT22;6928;50.546;7.120;2023-06-14T11:44:00;25.71;35.51
13713;DHT22;6928;50.546;7.120;2023-06-14T11:46:26;25.22;35.98
13713;DHT22;6928;50.546;7.120;2023-06-14T11:48:54;26.01;35.76
13713;DHT22;6928;50.546;7.120;2023-06-14T11:51:21;25.54;35.59
13713;DHT22;6928;50.546;7.120;2023-06-14T11:53:48;25.19;37.44
13713;DHT22;6928;50.546;7.120;2023-06-14T11:56:14;25.48;36.33
13713;DHT22;6928;50.546;7.120;2023-06-14T11:58:42;25.99;36.05
13713;DHT22;6928;50.546;7.120;2023-06-14T12:01:09;25.89;34.45
13713;DHT22;6928;50.546;7.120;2023-06-14T12:03:35;25.38;35.54
13713;DHT22;6928;50.546;7.120;2023-06-14T12:06:06;26.10;36.21
13713;DHT22;6928;50.546;7.120;2023-06-14T12:08:34;26.02;35.45
13713;DHT22;6928;50.546;7.120;2023-06-14T12:11:04;25.13;37.02
13713;DHT22;6928;50.546;7.120;2023-06-14T12:13:31;25.73;35.48
13713;DHT22;6928;50.546;7.120;2023-06-14T12:15:57;26.02;34.83
13713;DHT22;6928;50.546;7.120;2023-06-14T12:18:32;25.50;35.07
13713;DHT22;6928;50.546;7.120;2023-06-14T12:20:59;25.22;36.94
13713;DHT22;6928;50.546;7.120;2023-06-14T12:23:42;25.10;37.45
13713;DHT22;6928;50.546;7.120;2023-06-14T12:26:09;25.33;37.84
13713;DHT22;6928;50.546;7.120;2023-06-14T12:28:35;25.61;37.10
13713;DHT22;6928;50.546;7.120;2023-06-14T12:31:02;25.68;36.10
13713;DHT22;6928;50.546;7.120;2023-06-14T12:33:29;25.16;36.52
13713;DHT22;6928;50.546;7.120;2023-06-14T12:35:56;25.71;36.34
13713;DHT22;6928;50.546;7.120;2023-06-14T12:38:23;25.10;35.82
13713;DHT22;6928;50.546;7.120;2023-06-14T12:40:51;25.37;36.99
13713;DHT22;6928;50.546;7.120;2023-06-14T12:43:18;25.73;37.42
13713;DHT22;6928;50.546;7.120;2023-06-14T12:45:45;25.06;37.60
13713;DHT22;6928;50.546;7.120;2023-06-14T12:48:11;25.98;35.38
13713;DHT22;6928;50.546;7.120;2023-06-14T12:50:37;25.40;36.42
13713;DHT22;6928;50.546;7.120;2023-06-14T12:53:04;25.95;36.36
13713;DHT22;6928;50.546;7.120;2023-06-14T12:55:31;26.05;35.92
13713;DHT22;6928;50.546;7.120;2023-06-14T12:57:59;25.74;36.26
13713;DHT22;6928;50.546;7.120;2023-06-14T13:00:26;25.33;37.57
13713;DHT22;6928;50.546;7.120;2023-06-14T13:02:52;25.56;37.11
13713;DHT22;6928;50.546;7.120;2023-06-14T13:05:19;25.41;36.10
13713;DHT22;6928;50.546;7.120;2023-06-14T13:07:46;25.41;36.42
13713;DHT22;6928;50.546;7.120;2023-06-14T13:10:12;24.94;37.35
13713;DHT22;6928;50.546;7.120;2023-06-14T13:12:39;26.06;35.23
13713;DHT22;6928;50.546;7.120;2023-06-14T13:15:07;25.19;36.93
13713;DHT22;6928;50.546;7.120;2023-06-14T13:17:34;25.05;36.50
13713;DHT22;6928;50.546;7.120;2023-06-14T13:20:04;25.47;36.62
13713;DHT22;6928;50.546;7.120;2023-06-14T13:22:30;25.57;35.87
13713;DHT22;6928;50.546;7.120;2023-06-14T13:24:57;25.96;36.07
13713;DHT22;6928;50.546;7.120;2023-06-14T13:27:24;25.65;35.76
13713;DHT22;6928;50.546;7.120;2023-06-14T13:29:50;25.19;36.43
13713;DHT22;6928;50.546;7.120;2023-06-14T13:32:18;25.16;36.87
13713;DHT22;6928;50.546;7.120;2023-06-14T13:34:45;24.90;36.69
13713;DHT22;6928;50.546;7.120;2023-06-14T13:37:11;25.19;36.68
13713;DHT22;6928;50.546;7.120;2023-06-14T13:39:39;25.15;37.35
13713;DHT22;6928;50.546;7.120;2023-06-14T13:42:06;25.74;36.08
13713;DHT22;6928;50.546;7.120;2023-06-14T13:44:33;25.05;36.65
13713;DHT22;6928;50.546;7.120;2023-06-14T13:46:59;25.50;36.76
13713;DHT22;6928;50.546;7.120;2023-06-14T13:49:27;25.57;37.89
13713;DHT22;6928;50.546;7.120;2023-06-14T13:51:54;24.98;38.67
13713;DHT22;6928;50.546;7.120;2023-06-14T13:54:21;24.98;38.77
13713;DHT22;6928;50.546;7.120;2023-06-14T13:56:47;24.90;37.53
13713;DHT22;6928;50.546;7.120;2023-06-14T13:59:14;24.99;37.39
13713;DHT22;6928;50.546;7.120;2023-06-14T14:01:41;25.36;37.76
13713;DHT22;6928;50.546;7.120;2023-06-14T14:04:08;24.95;38.59
13713;DHT22;6928;50.546;7.120;2023-06-14T14:06:36;25.54;37.76
13713;DHT22;6928;50.546;7.120;2023-06-14T14:09:03;24.64;39.00
13713;DHT22;6928;50.546;7.120;2023-06-14T14:11:29;24.52;39.11
13713;DHT22;6928;50.546;7.120;2023-06-14T14:13:58;25.07;38.76
13713;DHT22;6928;50.546;7.120;2023-06-14T14:16:25;25.02;39.14
13713;DHT22;6928;50.546;7.120;2023-06-14T14:18:52;25.09;38.74
13713;DHT22;6928;50.546;7.120;2023-06-14T14:21:19;25.03;38.48
13713;DHT22;6928;50.546;7.120;2023-06-14T14:23:46;24.67;39.02
13713;DHT22;6928;50.546;7.120;2023-06-14T14:26:14;25.22;38.15
13713;DHT22;6928;50.546;7.120;2023-06-14T14:28:41;25.05;37.92
13713;DHT22;6928;50.546;7.120;2023-06-14T14:31:08;25.02;38.69
13713;DHT22;6928;50.546;7.120;2023-06-14T14:33:34;24.22;39.15
13713;DHT22;6928;50.546;7.120;2023-06-14T14:36:01;24.78;38.78
13713;DHT22;6928;50.546;7.120;2023-06-14T14:38:29;25.07;38.63
13713;DHT22;6928;50.546;7.120;2023-06-14T14:40:57;25.82;37.85
13713;DHT22;6928;50.546;7.120;2023-06-14T14:43:24;25.16;38.53
13713;DHT22;6928;50.546;7.120;2023-06-14T14:45:51;25.12;38.50
13713;DHT22;6928;50.546;7.120;2023-06-14T14:48:17;24.99;38.51
13713;DHT22;6928;50.546;7.120;2023-06-14T14:50:44;24.67;39.00
13713;DHT22;6928;50.546;7.120;2023-06-14T14:53:10;24.67;39.07
13713;DHT22;6928;50.546;7.120;2023-06-14T14:55:37;24.25;39.52
13713;DHT22;6928;50.546;7.120;2023-06-14T14:58:06;25.33;38.53
13713;DHT22;6928;50.546;7.120;2023-06-14T15:00:33;24.51;38.32
13713;DHT22;6928;50.546;7.120;2023-06-14T15:03:00;24.73;38.38
13713;DHT22;6928;50.546;7.120;2023-06-14T15:05:26;24.73;38.21
13713;DHT22;6928;50.546;7.120;2023-06-14T15:07:53;25.05;38.92
13713;DHT22;6928;50.546;7.120;2023-06-14T15:10:19;24.90;39.29
13713;DHT22;6928;50.546;7.120;2023-06-14T15:12:46;24.95;38.70
13713;DHT22;6928;50.546;7.120;2023-06-14T15:15:14;24.85;38.66
13713;DHT22;6928;50.546;7.120;2023-06-14T15:17:41;24.99;37.85
13713;DHT22;6928;50.546;7.120;2023-06-14T15:20:08;25.19;38.43
13713;DHT22;6928;50.546;7.120;2023-06-14T15:22:35;24.48;38.94
13713;DHT22;6928;50.546;7.120;2023-06-14T15:25:01;24.94;39.23
13713;DHT22;6928;50.546;7.120;2023-06-14T15:27:28;24.36;39.18
13713;DHT22;6928;50.546;7.120;2023-06-14T15:29:55;24.37;40.04
13713;DHT22;6928;50.546;7.120;2023-06-14T15:32:22;24.44;40.04
13713;DHT22;6928;50.546;7.120;2023-06-14T15:34:49;24.51;39.72
13713;DHT22;6928;50.546;7.120;2023-06-14T15:37:16;24.88;38.84
13713;DHT22;6928;50.546;7.120;2023-06-14T15:39:42;24.72;38.40
13713;DHT22;6928;50.546;7.120;2023-06-14T15:42:09;25.15;37.30
13713;DHT22;6928;50.546;7.120;2023-06-14T15:44:37;24.80;37.27
13713;DHT22;6928;50.546;7.120;2023-06-14T15:47:04;24.85;37.44
13713;DHT22;6928;50.546;7.120;2023-06-14T15:49:32;24.58;38.20